Time;durP1;ratioP1;P1;durP2;ratioP2;P2;SDS_P1;SDS_P2;PMS_P1;PMS_P2;Temp;Humidity;BMP_temperature;BMP_pressure;BME280_temperature;BME280_humidity;BME280_pressure;Samples;Min_cycle;Max_cycle;Signal;HPM_P1;HPM_P2
2023/04/04 00:01:23;;;;;;;;;12.25;9.25;;;;;8.48;45.44;102090.63;5094018;27;45413;-68
2023/04/04 00:03:50;;;;;;;;;8.00;8.00;;;;;8.40;45.31;102085.97;5075513;27;47882;-68
2023/04/04 00:06:19;;;;;;;;;13.25;9.25;;;;;8.45;45.00;102095.75;5093642;27;45367;-68
2023/04/04 00:08:45;;;;;;;;;8.75;8.00;;;;;8.45;44.37;102095.75;5075259;27;45467;-67
2023/04/04 00:11:11;;;;;;;;;7.50;7.50;;;;;8.45;44.59;102089.66;5093760;27;45405;-66
2023/04/04 00:13:37;;;;;;;;;7.75;7.50;;;;;8.37;44.78;102085.84;5075199;27;47734;-67
2023/04/04 00:16:04;;;;;;;;;7.00;7.00;;;;;8.34;44.77;102084.03;5093984;27;45625;-69
2023/04/04 00:18:30;;;;;;;;;9.25;6.25;;;;;8.38;44.90;102095.50;5075589;27;45503;-66
2023/04/04 00:20:55;;;;;;;;;9.50;7.50;;;;;8.42;44.55;102092.16;5093960;27;45802;-69
2023/04/04 00:23:21;;;;;;;;;8.25;7.00;;;;;8.39;44.39;102076.34;5092847;27;45631;-68
2023/04/04 00:25:51;;;;;;;;;7.00;5.75;;;;;8.42;44.60;102090.44;5074464;27;46299;-70
2023/04/04 00:28:20;;;;;;;;;8.25;8.25;;;;;8.43;44.29;102087.00;5095539;27;45741;-68
2023/04/04 00:30:47;;;;;;;;;9.75;9.75;;;;;8.40;44.24;102079.06;5101563;27;45578;-68
2023/04/04 00:33:14;;;;;;;;;10.25;8.50;;;;;8.46;44.16;102086.19;5095339;27;45975;-67
2023/04/04 00:35:40;;;;;;;;;7.50;7.00;;;;;8.48;44.08;102082.78;5066219;27;45548;-68
2023/04/04 00:38:06;;;;;;;;;8.75;8.75;;;;;8.46;43.96;102086.19;5080607;27;45382;-66
2023/04/04 00:40:39;;;;;;;;;10.75;9.50;;;;;8.46;44.00;102091.41;5061058;27;45612;-68
2023/04/04 00:43:06;;;;;;;;;9.00;8.00;;;;;8.30;43.57;102079.53;5080051;27;45974;-68
2023/04/04 00:45:33;;;;;;;;;8.50;6.75;;;;;8.24;44.09;102081.97;5087294;27;45453;-68
2023/04/04 00:48:01;;;;;;;;;8.75;8.75;;;;;8.21;44.11;102084.47;5069484;27;45389;-66
2023/04/04 00:50:27;;;;;;;;;7.00;6.75;;;;;8.20;44.42;102093.13;5078756;27;45410;-67
2023/04/04 00:52:52;;;;;;;;;9.25;7.00;;;;;8.21;44.76;102097.50;5077503;27;47620;-68
2023/04/04 00:55:18;;;;;;;;;8.00;8.00;;;;;8.17;43.92;102101.75;5096755;27;45620;-68
2023/04/04 00:57:44;;;;;;;;;7.75;6.75;;;;;8.18;44.20;102094.81;5078042;27;45477;-67
2023/04/04 01:00:11;;;;;;;;;7.00;7.00;;;;;8.25;44.56;102091.56;5078318;27;45856;-69
2023/04/04 01:02:37;;;;;;;;;9.00;8.50;;;;;8.15;44.56;102064.28;5078042;27;48155;-68
2023/04/04 01:05:03;;;;;;;;;5.50;5.50;;;;;8.21;44.35;102079.25;5077704;27;45609;-68
2023/04/04 01:07:29;;;;;;;;;10.50;8.75;;;;;8.24;44.49;102075.03;5096256;27;45322;-67
2023/04/04 01:09:56;;;;;;;;;8.75;8.75;;;;;8.18;44.37;102068.72;5078143;27;45698;-69
2023/04/04 01:12:22;;;;;;;;;11.75;9.00;;;;;8.20;44.48;102077.47;5079112;27;46534;-69
2023/04/04 01:14:47;;;;;;;;;9.25;8.50;;;;;8.15;44.29;102066.88;5098696;27;45314;-68
2023/04/04 01:17:13;;;;;;;;;10.50;8.50;;;;;8.20;44.43;102072.25;5063334;27;45892;-67
2023/04/04 01:20:04;;;;;;;;;8.50;8.50;;;;;8.17;44.41;102072.16;5096519;27;45817;-68
2023/04/04 01:22:32;;;;;;;;;11.25;9.50;;;;;8.09;44.31;102064.06;5082574;27;46441;-66
2023/04/04 01:24:59;;;;;;;;;11.25;9.25;;;;;8.11;44.12;102058.91;5098930;27;45428;-67
2023/04/04 01:27:25;;;;;;;;;8.75;8.75;;;;;8.14;43.92;102067.72;5096249;27;45476;-67
2023/04/04 01:29:51;;;;;;;;;5.75;5.25;;;;;8.08;44.30;102075.34;5077787;27;45459;-66
2023/04/04 01:32:23;;;;;;;;;8.00;7.50;;;;;8.07;44.49;102079.69;5098468;27;45542;-67
2023/04/04 01:35:07;;;;;;;;;10.75;8.75;;;;;8.03;44.30;102080.41;5099996;27;45373;-67
2023/04/04 01:37:41;;;;;;;;;10.00;7.50;;;;;8.04;44.33;102076.97;5075608;27;45500;-67
2023/04/04 01:40:37;;;;;;;;;12.25;9.50;;;;;7.97;44.80;102067.16;5068709;27;45866;-67
2023/04/04 01:43:03;;;;;;;;;13.25;9.75;;;;;8.05;44.62;102080.47;5081168;27;46596;-68
2023/04/04 01:45:29;;;;;;;;;11.75;8.75;;;;;7.97;44.49;102066.25;5089241;27;45423;-67
2023/04/04 01:47:55;;;;;;;;;8.25;5.50;;;;;7.92;44.97;102076.53;5090428;27;45497;-69
2023/04/04 01:50:22;;;;;;;;;12.00;9.25;;;;;7.94;44.72;102092.25;5089106;27;45579;-69
2023/04/04 01:52:48;;;;;;;;;4.50;2.75;;;;;7.89;44.66;102081.66;5093201;27;46530;-68
2023/04/04 01:55:14;;;;;;;;;9.00;8.75;;;;;7.99;44.79;102091.56;5076784;27;45604;-68
2023/04/04 01:57:40;;;;;;;;;10.75;10.75;;;;;7.89;44.77;102081.66;5076398;27;45518;-68
2023/04/04 02:00:07;;;;;;;;;9.75;8.00;;;;;7.97;44.64;102098.47;5076598;27;45387;-69
2023/04/04 02:02:32;;;;;;;;;11.50;10.00;;;;;7.88;44.68;102084.19;5096660;27;46291;-67
2023/04/04 02:04:58;;;;;;;;;12.75;8.75;;;;;7.92;44.18;102083.47;5079044;27;45402;-68
2023/04/04 02:07:24;;;;;;;;;11.25;11.00;;;;;7.95;43.97;102097.53;5095241;27;45480;-68
2023/04/04 02:09:50;;;;;;;;;12.00;8.75;;;;;7.88;44.34;102090.34;5062572;27;46008;-69
2023/04/04 02:12:16;;;;;;;;;11.00;9.00;;;;;7.81;44.15;102084.00;5090892;27;45584;-68
2023/04/04 02:14:42;;;;;;;;;11.75;8.75;;;;;7.72;43.82;102078.47;5083795;27;45472;-66
2023/04/04 02:17:07;;;;;;;;;12.00;12.00;;;;;7.74;44.23;102079.41;5095906;27;45319;-69
2023/04/04 02:19:32;;;;;;;;;12.75;10.25;;;;;7.67;43.56;102074.81;5097450;27;45714;-72
2023/04/04 02:21:58;;;;;;;;;9.50;9.50;;;;;7.59;44.07;102078.84;5093960;27;47330;-67
2023/04/04 02:24:23;;;;;;;;;9.00;8.50;;;;;7.48;43.96;102067.19;5076219;27;45479;-69
2023/04/04 02:26:49;;;;;;;;;11.50;8.25;;;;;7.42;43.98;102067.81;5072105;27;45433;-70
2023/04/04 02:29:15;;;;;;;;;8.75;8.75;;;;;7.21;44.65;102063.63;5095465;27;45517;-68
2023/04/04 02:31:41;;;;;;;;;11.75;10.50;;;;;7.15;44.73;102054.69;5077770;27;48008;-68
2023/04/04 02:34:07;;;;;;;;;8.25;6.25;;;;;7.22;44.49;102068.00;5096405;27;45394;-69
2023/04/04 02:36:32;;;;;;;;;12.75;9.00;;;;;7.23;44.57;102072.34;5094809;27;45370;-68
2023/04/04 02:38:58;;;;;;;;;9.50;9.50;;;;;7.14;44.51;102056.41;5095062;27;45371;-67
2023/04/04 02:41:24;;;;;;;;;10.25;9.75;;;;;7.14;45.05;102048.59;5072336;27;46292;-67
2023/04/04 02:43:50;;;;;;;;;10.00;8.50;;;;;7.26;44.88;102071.63;5091653;27;45477;-68
2023/04/04 02:46:15;;;;;;;;;11.00;8.50;;;;;7.10;44.57;102045.81;5094617;27;45488;-69
2023/04/04 02:48:41;;;;;;;;;8.50;8.50;;;;;7.24;44.84;102075.88;5075518;27;45438;-67
2023/04/04 02:51:06;;;;;;;;;10.25;8.75;;;;;7.26;44.94;102069.00;5077405;27;46155;-68
2023/04/04 02:53:32;;;;;;;;;14.00;11.00;;;;;7.23;44.61;102048.03;5074826;27;45355;-68
2023/04/04 02:55:58;;;;;;;;;10.00;10.00;;;;;7.32;44.79;102060.50;5055905;27;45513;-68
2023/04/04 02:58:24;;;;;;;;;10.00;10.00;;;;;7.34;44.62;102054.53;5055695;28;45567;-68
2023/04/04 03:00:53;;;;;;;;;12.50;10.50;;;;;7.32;45.10;102060.50;5059184;28;46044;-69
2023/04/04 03:03:24;;;;;;;;;12.25;8.50;;;;;7.32;45.39;102058.78;5078027;27;45527;-68
2023/04/04 03:05:50;;;;;;;;;13.25;10.25;;;;;7.29;45.35;102052.59;5078153;27;45243;-68
2023/04/04 03:08:16;;;;;;;;;8.75;8.75;;;;;7.41;44.63;102060.84;5077921;27;45365;-67
2023/04/04 03:10:44;;;;;;;;;11.00;11.00;;;;;7.41;45.35;102060.84;5055554;28;45362;-67
2023/04/04 03:13:10;;;;;;;;;13.50;7.75;;;;;7.34;45.20;102059.72;5073911;27;45971;-67
2023/04/04 03:15:36;;;;;;;;;11.00;11.00;;;;;7.40;45.38;102054.75;5074962;27;45445;-67
2023/04/04 03:18:02;;;;;;;;;14.00;12.00;;;;;7.35;45.39;102051.06;5072550;27;45363;-68
2023/04/04 03:20:28;;;;;;;;;9.00;7.00;;;;;7.36;45.32;102051.97;5084100;27;46072;-67
2023/04/04 03:22:53;;;;;;;;;11.00;9.25;;;;;7.26;45.01;102037.72;5066486;27;45351;-67
2023/04/04 03:25:19;;;;;;;;;11.25;11.25;;;;;7.32;45.02;102045.75;5091232;27;45374;-67
2023/04/04 03:27:45;;;;;;;;;13.75;12.25;;;;;7.29;45.13;102050.00;5068735;27;45543;-67
2023/04/04 03:30:11;;;;;;;;;7.00;6.50;;;;;7.34;44.92;102061.47;5095110;27;45517;-67
2023/04/04 03:32:38;;;;;;;;;10.25;10.25;;;;;7.28;45.56;102061.22;5092003;27;45452;-68
2023/04/04 03:35:05;;;;;;;;;9.50;9.50;;;;;7.29;45.05;102063.91;5091512;27;45508;-68
2023/04/04 03:37:31;;;;;;;;;12.50;10.25;;;;;7.30;45.60;102063.06;5083806;27;45417;-68
2023/04/04 03:39:57;;;;;;;;;10.50;10.50;;;;;7.24;45.37;102060.25;5089661;27;46392;-67
2023/04/04 03:42:22;;;;;;;;;11.25;9.75;;;;;7.22;45.36;102064.50;5076166;27;45513;-67
2023/04/04 03:44:48;;;;;;;;;10.50;9.25;;;;;7.20;45.86;102053.13;5084645;27;45375;-68
2023/04/04 03:47:14;;;;;;;;;11.50;11.50;;;;;7.26;45.37;102075.91;5071002;27;45733;-70
2023/04/04 03:49:40;;;;;;;;;12.75;9.50;;;;;7.26;44.93;102073.31;5077209;27;46384;-68
2023/04/04 03:52:06;;;;;;;;;10.25;10.25;;;;;7.21;44.71;102062.72;5066114;27;45446;-67
2023/04/04 03:54:32;;;;;;;;;9.50;8.25;;;;;7.14;44.49;102061.63;5071437;27;45514;-67
2023/04/04 03:56:58;;;;;;;;;8.00;8.00;;;;;7.02;44.82;102048.09;5070803;28;45646;-67
2023/04/04 03:59:24;;;;;;;;;11.50;10.75;;;;;7.10;44.82;102064.06;5075196;27;46455;-66
2023/04/04 04:01:49;;;;;;;;;10.25;9.00;;;;;7.04;44.88;102062.09;5060475;27;45506;-67
2023/04/04 04:04:15;;;;;;;;;9.00;7.25;;;;;7.05;44.79;102065.56;5098257;27;45473;-68
2023/04/04 04:06:42;;;;;;;;;10.75;9.75;;;;;7.07;44.79;102079.53;5099366;27;46216;-68
2023/04/04 04:09:11;;;;;;;;;8.75;8.75;;;;;6.97;44.62;102068.78;5081677;27;45637;-69
2023/04/04 04:11:36;;;;;;;;;10.50;9.25;;;;;6.86;45.21;102063.97;5058431;28;45460;-70
2023/04/04 04:14:02;;;;;;;;;9.75;9.75;;;;;6.92;44.76;102083.34;5076160;27;45363;-68
2023/04/04 04:16:28;;;;;;;;;11.00;10.50;;;;;6.84;44.99;102082.19;5060831;27;45467;-67
2023/04/04 04:18:53;;;;;;;;;8.50;8.50;;;;;6.79;44.64;102079.41;5080534;27;45655;-67
2023/04/04 04:21:19;;;;;;;;;11.00;10.50;;;;;6.77;45.39;102085.38;5062323;28;45436;-69
2023/04/04 04:23:45;;;;;;;;;14.75;12.00;;;;;6.75;45.39;102092.22;5067223;27;45875;-68
2023/04/04 04:26:10;;;;;;;;;11.50;10.50;;;;;6.72;45.42;102086.91;5076532;27;45359;-68
2023/04/04 04:28:36;;;;;;;;;9.00;9.00;;;;;6.68;45.55;102098.03;5076005;27;46358;-68
2023/04/04 04:31:06;;;;;;;;;11.00;10.75;;;;;6.66;45.91;102107.47;5076270;27;45316;-69
2023/04/04 04:33:32;;;;;;;;;8.75;8.75;;;;;6.77;45.96;102124.44;5058014;27;45481;-68
2023/04/04 04:36:02;;;;;;;;;12.00;10.25;;;;;6.81;45.47;102110.72;5061978;28;45492;-69
2023/04/04 04:38:28;;;;;;;;;13.25;11.50;;;;;6.74;45.68;102095.69;5058257;27;46745;-69
2023/04/04 04:40:54;;;;;;;;;10.50;9.00;;;;;6.82;45.97;102104.66;5077446;27;45535;-68
2023/04/04 04:43:19;;;;;;;;;13.75;10.00;;;;;6.78;45.50;102118.38;5080725;27;45208;-68
2023/04/04 04:45:45;;;;;;;;;10.50;9.25;;;;;6.79;45.75;102114.97;5059161;28;45485;-67
2023/04/04 04:48:12;;;;;;;;;11.25;9.25;;;;;6.87;46.14;102117.88;5081233;27;46238;-68
2023/04/04 04:50:37;;;;;;;;;11.00;9.25;;;;;6.73;45.50;102083.47;5057083;27;45424;-68
2023/04/04 04:53:03;;;;;;;;;10.00;8.50;;;;;6.83;45.58;102102.94;5094987;27;45453;-68
2023/04/04 04:55:29;;;;;;;;;13.50;10.25;;;;;6.84;45.63;102112.53;5096725;27;45480;-68
2023/04/04 04:57:55;;;;;;;;;10.25;9.50;;;;;6.79;45.30;102109.75;5078166;27;47535;-69
2023/04/04 05:00:22;;;;;;;;;12.00;10.50;;;;;6.72;45.86;102111.22;5095880;27;45546;-70
2023/04/04 05:02:48;;;;;;;;;9.50;8.50;;;;;6.63;46.05;102117.78;5096303;27;45416;-69
2023/04/04 05:05:14;;;;;;;;;12.00;11.00;;;;;6.59;45.58;102121.97;5096920;27;45848;-69
2023/04/04 05:07:45;;;;;;;;;8.25;8.00;;;;;6.53;45.76;102111.31;5094904;27;46062;-69
2023/04/04 05:10:11;;;;;;;;;10.50;8.00;;;;;6.44;45.85;102110.94;5096082;27;45396;-69
2023/04/04 05:12:42;;;;;;;;;11.00;11.00;;;;;6.31;46.17;102109.53;5096213;27;45410;-68
2023/04/04 05:15:08;;;;;;;;;10.25;8.25;;;;;6.22;46.22;102107.47;5077429;27;45484;-68
2023/04/04 05:17:37;;;;;;;;;8.75;8.50;;;;;6.11;47.17;102108.72;5099081;27;46463;-68
2023/04/04 05:20:03;;;;;;;;;11.00;11.00;;;;;6.02;46.62;102098.81;5095700;27;45448;-67
2023/04/04 05:22:29;;;;;;;;;12.75;11.50;;;;;5.95;47.11;102097.66;5095912;27;45499;-69
2023/04/04 05:24:57;;;;;;;;;9.50;9.50;;;;;5.88;47.41;102103.38;5075024;27;46104;-68
2023/04/04 05:27:23;;;;;;;;;11.00;9.75;;;;;5.92;47.46;102099.22;5079853;27;45345;-69
2023/04/04 05:29:48;;;;;;;;;11.75;11.75;;;;;5.95;47.19;102100.25;5081539;27;45583;-69
2023/04/04 05:32:14;;;;;;;;;11.00;9.25;;;;;5.92;47.67;102096.59;5099879;27;45473;-69
2023/04/04 05:34:40;;;;;;;;;13.25;12.00;;;;;6.00;47.25;102091.75;5100270;27;45430;-71
2023/04/04 05:37:06;;;;;;;;;12.00;11.00;;;;;6.00;47.44;102099.56;5099526;27;45596;-68
2023/04/04 05:39:31;;;;;;;;;12.75;11.00;;;;;5.93;47.67;102085.38;5099275;27;45585;-68
2023/04/04 05:41:57;;;;;;;;;11.25;10.50;;;;;5.90;48.29;102099.13;5081184;27;45460;-68
2023/04/04 05:44:22;;;;;;;;;11.00;10.00;;;;;5.79;47.90;102081.28;5081922;27;45585;-69
2023/04/04 05:46:48;;;;;;;;;10.00;10.00;;;;;6.03;47.23;102103.19;5099764;27;46189;-68
2023/04/04 05:49:13;;;;;;;;;13.00;12.00;;;;;6.13;47.41;102109.66;5098170;27;45337;-68
2023/04/04 05:51:39;;;;;;;;;10.50;9.00;;;;;6.19;47.42;102115.13;5085257;27;45346;-67
2023/04/04 05:54:06;;;;;;;;;10.50;9.75;;;;;6.27;47.36;102120.66;5096050;27;45462;-68
2023/04/04 05:56:32;;;;;;;;;13.50;10.75;;;;;6.30;47.20;102115.56;5079478;27;45499;-68
2023/04/04 05:58:58;;;;;;;;;9.25;9.25;;;;;6.47;46.56;102118.88;5095957;27;45461;-68
2023/04/04 06:01:24;;;;;;;;;10.50;10.50;;;;;6.75;46.27;102126.97;5094729;27;45491;-68
2023/04/04 06:03:50;;;;;;;;;9.00;9.00;;;;;6.80;45.58;102104.59;5080745;27;45365;-67
2023/04/04 06:06:16;;;;;;;;;13.50;10.50;;;;;6.89;45.73;102124.03;5095016;27;45501;-71
2023/04/04 06:08:41;;;;;;;;;10.75;10.50;;;;;6.76;45.86;102113.13;5093599;27;45542;-69
2023/04/04 06:11:07;;;;;;;;;13.00;11.00;;;;;6.86;45.39;102121.28;5076565;27;45583;-68
2023/04/04 06:13:32;;;;;;;;;8.75;8.00;;;;;6.93;44.82;102118.13;5095181;27;45554;-68
2023/04/04 06:15:58;;;;;;;;;13.25;12.25;;;;;7.04;44.77;102124.59;5093557;27;46282;-69
2023/04/04 06:18:23;;;;;;;;;8.75;8.75;;;;;7.16;44.25;102145.03;5095003;27;45431;-68
2023/04/04 06:20:49;;;;;;;;;12.00;9.25;;;;;7.10;44.60;102137.88;5094496;27;45441;-69
2023/04/04 06:23:15;;;;;;;;;12.50;10.75;;;;;7.32;44.57;102156.94;5085486;27;45423;-68
2023/04/04 06:25:40;;;;;;;;;13.00;10.25;;;;;7.42;44.07;102153.84;5092536;27;45481;-68
2023/04/04 06:28:06;;;;;;;;;12.25;12.25;;;;;7.38;43.89;102146.72;5075036;27;45402;-67
2023/04/04 06:30:36;;;;;;;;;15.00;11.25;;;;;7.40;43.69;102151.22;5065755;27;45608;-69
2023/04/04 06:33:02;;;;;;;;;11.75;10.75;;;;;7.41;43.54;102159.91;5108008;27;45678;-68
2023/04/04 06:35:28;;;;;;;;;13.25;11.00;;;;;7.53;43.77;102155.16;5093163;27;46565;-69
2023/04/04 06:37:54;;;;;;;;;17.75;9.50;;;;;7.69;43.52;102164.44;5092812;27;45778;-70
2023/04/04 06:40:21;;;;;;;;;12.25;11.00;;;;;7.61;43.27;102134.56;5091868;27;45587;-69
2023/04/04 06:42:56;;;;;;;;;14.25;10.75;;;;;7.69;42.50;102146.19;5092485;27;45565;-71
2023/04/04 06:45:22;;;;;;;;;15.25;12.00;;;;;7.79;42.73;102163.03;5088497;27;45370;-69
2023/04/04 06:47:50;;;;;;;;;10.75;9.50;;;;;7.78;41.89;102166.47;5089316;27;45585;-69
2023/04/04 06:50:16;;;;;;;;;9.25;9.25;;;;;7.82;42.26;102181.41;5085171;27;45660;-69
2023/04/04 06:52:43;;;;;;;;;14.00;12.25;;;;;7.81;42.31;102164.88;5095053;27;45662;-69
2023/04/04 06:55:12;;;;;;;;;7.50;7.50;;;;;7.91;41.10;102179.13;5094636;27;46244;-68
2023/04/04 06:57:38;;;;;;;;;12.25;10.00;;;;;7.89;41.58;102172.97;5090530;27;45489;-68
2023/04/04 07:00:04;;;;;;;;;13.00;10.25;;;;;8.05;41.89;102179.63;5091566;27;45704;-69
2023/04/04 07:02:30;;;;;;;;;10.25;10.25;;;;;8.12;41.27;102188.56;5094040;27;45555;-67
2023/04/04 07:04:56;;;;;;;;;10.75;8.00;;;;;8.13;41.34;102179.88;5091009;27;45460;-68
2023/04/04 07:07:21;;;;;;;;;13.00;9.00;;;;;8.29;41.58;102177.88;5088825;27;45272;-68
2023/04/04 07:09:48;;;;;;;;;10.75;8.00;;;;;8.50;41.27;102197.75;5072782;27;45483;-68
2023/04/04 07:12:13;;;;;;;;;12.75;10.00;;;;;8.61;40.71;102187.66;5093069;27;45591;-68
2023/04/04 07:14:39;;;;;;;;;11.00;10.25;;;;;8.50;40.41;102169.03;5063028;27;45823;-68
2023/04/04 07:17:05;;;;;;;;;17.75;11.75;;;;;8.53;39.96;102163.91;5075686;27;45521;-71
2023/04/04 07:19:30;;;;;;;;;12.75;11.00;;;;;8.51;39.81;102182.97;5062901;27;45366;-69
2023/04/04 07:21:56;;;;;;;;;12.25;10.50;;;;;8.52;39.98;102195.16;5081420;27;45424;-69
2023/04/04 07:24:21;;;;;;;;;12.00;9.00;;;;;8.48;40.08;102192.47;5067375;27;46725;-69
2023/04/04 07:26:47;;;;;;;;;9.00;9.00;;;;;8.57;40.27;102193.63;5083330;27;45743;-70
2023/04/04 07:29:13;;;;;;;;;10.50;10.00;;;;;8.65;40.31;102181.69;5062993;27;45954;-68
2023/04/04 07:31:39;;;;;;;;;9.00;8.50;;;;;8.85;40.13;102191.09;5089674;27;46533;-69
2023/04/04 07:34:05;;;;;;;;;9.00;8.00;;;;;8.97;39.20;102181.84;5086907;27;46089;-69
2023/04/04 07:36:30;;;;;;;;;9.75;7.75;;;;;8.85;39.31;102171.88;5086029;27;45516;-67
2023/04/04 07:38:56;;;;;;;;;7.50;7.50;;;;;8.98;39.39;102173.19;5091889;27;45475;-69
2023/04/04 07:41:22;;;;;;;;;8.75;7.75;;;;;9.10;39.20;102174.44;5073883;27;45838;-67
2023/04/04 07:43:48;;;;;;;;;8.75;8.75;;;;;9.19;38.27;102194.75;5071010;27;46559;-69
2023/04/04 07:46:14;;;;;;;;;12.00;10.00;;;;;9.08;38.55;102183.06;5109488;27;45846;-69
2023/04/04 07:48:40;;;;;;;;;6.50;6.50;;;;;9.05;38.76;102177.75;5076628;27;45550;-69
2023/04/04 07:51:06;;;;;;;;;13.25;11.50;;;;;9.11;38.46;102175.31;5064179;27;45648;-68
2023/04/04 07:53:32;;;;;;;;;10.75;9.25;;;;;9.17;38.01;102178.13;5078961;27;46406;-71
2023/04/04 07:55:57;;;;;;;;;8.50;7.50;;;;;9.27;38.27;102185.41;5097633;27;45385;-69
2023/04/04 07:58:23;;;;;;;;;9.00;7.75;;;;;9.44;38.24;102179.81;5079148;27;45353;-68
2023/04/04 08:00:49;;;;;;;;;7.25;5.75;;;;;9.57;38.15;102181.94;5098613;27;45497;-71
2023/04/04 08:03:16;;;;;;;;;14.50;13.50;;;;;9.62;37.76;102180.34;5101411;27;45950;-69
2023/04/04 08:05:42;;;;;;;;;12.25;8.25;;;;;9.63;37.77;102187.34;5101582;27;45397;-67
2023/04/04 08:08:07;;;;;;;;;8.50;8.50;;;;;9.75;37.72;102177.25;5100720;27;45363;-70
2023/04/04 08:10:33;;;;;;;;;10.25;9.00;;;;;9.85;36.91;102175.78;5097151;27;45581;-69
2023/04/04 08:12:58;;;;;;;;;10.50;8.00;;;;;9.79;37.27;102170.34;5078510;27;47710;-68
2023/04/04 08:15:24;;;;;;;;;8.00;8.00;;;;;9.97;37.15;102180.47;5077947;27;45452;-70
2023/04/04 08:17:50;;;;;;;;;9.00;9.00;;;;;9.99;36.55;102168.31;5096877;27;45417;-68
2023/04/04 08:20:15;;;;;;;;;11.25;10.50;;;;;9.94;36.42;102154.19;5080958;27;45464;-68
2023/04/04 08:22:41;;;;;;;;;14.75;8.75;;;;;9.89;36.77;102150.56;5077086;27;45949;-70
2023/04/04 08:25:09;;;;;;;;;9.50;7.50;;;;;10.01;37.08;102161.34;5075866;27;45561;-71
2023/04/04 08:27:38;;;;;;;;;10.00;9.50;;;;;10.13;37.19;102155.56;5058042;28;45789;-70
2023/04/04 08:30:04;;;;;;;;;6.75;5.75;;;;;10.32;36.29;102168.34;5077878;27;45350;-68
2023/04/04 08:32:30;;;;;;;;;8.75;8.75;;;;;10.43;36.25;102168.63;5059667;28;47758;-68
2023/04/04 08:34:56;;;;;;;;;12.25;9.50;;;;;10.45;36.09;102166.03;5076270;27;45558;-68
2023/04/04 08:37:22;;;;;;;;;8.75;8.75;;;;;10.25;35.54;102170.72;5057501;27;45339;-68
2023/04/04 08:39:48;;;;;;;;;11.00;9.25;;;;;10.09;35.62;102167.72;5060505;27;45488;-69
2023/04/04 08:42:19;;;;;;;;;9.25;7.00;;;;;10.08;36.51;102150.22;5065759;28;48219;-69
2023/04/04 08:44:46;;;;;;;;;15.50;11.50;;;;;10.15;36.01;102174.81;5080017;27;45506;-74
2023/04/04 08:47:15;;;;;;;;;16.75;15.75;;;;;10.15;35.93;102160.00;5080242;27;45489;-69
2023/04/04 08:49:43;;;;;;;;;9.00;8.75;;;;;10.18;35.83;102169.69;5075299;27;45374;-66
2023/04/04 08:52:11;;;;;;;;;8.50;7.75;;;;;10.26;36.00;102178.63;5092417;27;45844;-70
2023/04/04 08:54:39;;;;;;;;;8.50;8.25;;;;;10.40;36.19;102174.66;5096389;27;45454;-69
2023/04/04 08:57:05;;;;;;;;;9.50;8.50;;;;;10.46;36.17;102168.69;5086885;27;45452;-68
2023/04/04 08:59:32;;;;;;;;;8.00;8.00;;;;;10.55;35.75;102178.53;5067018;27;45759;-71
2023/04/04 09:02:14;;;;;;;;;14.00;13.00;;;;;10.56;35.50;102190.78;5075749;27;45562;-69
2023/04/04 09:04:41;;;;;;;;;9.25;9.25;;;;;10.47;35.19;102187.94;5057207;27;45918;-68
2023/04/04 09:07:09;;;;;;;;;11.75;10.75;;;;;10.42;34.94;102181.66;5075682;27;45521;-68
2023/04/04 09:09:37;;;;;;;;;8.75;7.00;;;;;10.13;35.42;102148.63;5075085;27;45327;-67
2023/04/04 09:12:04;;;;;;;;;11.00;8.25;;;;;10.42;35.58;102184.28;5058715;27;47257;-68
2023/04/04 09:14:31;;;;;;;;;8.50;6.75;;;;;10.55;35.35;102173.28;5076754;27;45773;-67
2023/04/04 09:16:57;;;;;;;;;13.25;7.50;;;;;10.58;34.89;102160.25;5075628;27;45473;-71
2023/04/04 09:19:22;;;;;;;;;9.50;9.00;;;;;10.69;34.21;102168.38;5060806;28;45708;-70
2023/04/04 09:21:48;;;;;;;;;10.25;8.25;;;;;10.47;34.62;102165.22;5059726;27;47240;-68
2023/04/04 09:24:15;;;;;;;;;8.50;8.50;;;;;10.39;34.96;102169.38;5075238;27;45501;-68
2023/04/04 09:26:48;;;;;;;;;8.50;8.25;;;;;10.29;35.33;102170.00;5056627;27;46154;-68
2023/04/04 09:29:18;;;;;;;;;6.75;6.75;;;;;10.31;35.58;102170.91;5074687;27;45450;-70
2023/04/04 09:31:45;;;;;;;;;9.25;8.25;;;;;10.47;34.86;102167.84;5075311;27;46367;-68
2023/04/04 09:34:13;;;;;;;;;8.00;8.00;;;;;10.45;34.77;102173.91;5074593;27;45462;-68
2023/04/04 09:36:43;;;;;;;;;9.25;8.25;;;;;10.58;35.18;102162.88;5056392;28;45474;-68
2023/04/04 09:39:09;;;;;;;;;9.50;8.00;;;;;10.78;34.61;102168.63;5075279;27;45462;-69
2023/04/04 09:41:40;;;;;;;;;7.50;6.75;;;;;10.95;34.46;102172.50;5075473;27;46145;-70
2023/04/04 09:44:06;;;;;;;;;9.25;8.75;;;;;10.94;33.27;102167.22;5056042;27;45448;-68
2023/04/04 09:46:35;;;;;;;;;6.00;5.25;;;;;10.90;33.98;102168.91;5075052;27;45529;-67
2023/04/04 09:49:00;;;;;;;;;8.00;8.00;;;;;10.88;33.87;102159.22;5075032;27;45476;-68
2023/04/04 09:51:37;;;;;;;;;6.75;5.00;;;;;11.03;34.07;102150.00;5067894;27;47070;-69
2023/04/04 09:54:05;;;;;;;;;10.25;8.00;;;;;11.12;33.65;102138.81;5098305;27;45425;-68
2023/04/04 09:56:33;;;;;;;;;8.25;8.25;;;;;11.41;33.32;102163.06;5081315;27;45524;-68
2023/04/04 09:59:00;;;;;;;;;8.75;7.25;;;;;11.54;33.32;102163.31;5076921;27;45422;-69
2023/04/04 10:01:27;;;;;;;;;10.00;6.00;;;;;11.73;33.04;102156.69;5095227;27;45515;-69
2023/04/04 10:03:54;;;;;;;;;10.00;8.75;;;;;11.86;32.00;102171.81;5095332;27;45765;-69
2023/04/04 10:06:20;;;;;;;;;6.75;6.75;;;;;11.64;31.84;102167.88;5077177;27;45489;-68
2023/04/04 10:08:47;;;;;;;;;10.00;8.25;;;;;11.65;31.47;102167.03;5095174;27;45645;-68
2023/04/04 10:11:12;;;;;;;;;10.75;9.25;;;;;11.43;31.31;102157.81;5076254;27;45952;-68
2023/04/04 10:13:40;;;;;;;;;8.75;8.75;;;;;11.21;31.86;102164.34;5095555;27;45559;-68
2023/04/04 10:16:06;;;;;;;;;9.50;9.25;;;;;11.16;32.54;102160.75;5095601;27;45776;-68
2023/04/04 10:18:33;;;;;;;;;7.75;6.50;;;;;11.19;32.62;102161.69;5095611;27;45429;-70
2023/04/04 10:21:01;;;;;;;;;10.25;9.25;;;;;11.25;31.73;102166.19;5097433;27;46114;-68
2023/04/04 10:23:27;;;;;;;;;7.75;6.50;;;;;11.13;31.88;102155.41;5097748;27;45385;-66
2023/04/04 10:25:57;;;;;;;;;8.50;6.00;;;;;11.36;32.35;102162.06;5095333;27;45504;-68
2023/04/04 10:28:23;;;;;;;;;5.75;5.00;;;;;11.61;32.53;102158.22;5076632;27;45592;-70
2023/04/04 10:31:13;;;;;;;;;6.25;6.25;;;;;11.93;33.25;102151.88;5094842;27;46355;-69
2023/04/04 10:34:16;;;;;;;;;13.00;11.00;;;;;12.03;31.48;102165.22;5076355;27;45672;-67
2023/04/04 10:37:09;;;;;;;;;8.75;7.50;;;;;11.82;31.74;102144.63;5076459;27;45467;-67
2023/04/04 10:39:43;;;;;;;;;10.25;8.50;;;;;12.05;31.87;102162.59;5083862;27;45529;-68
2023/04/04 10:42:13;;;;;;;;;9.50;7.25;;;;;12.18;31.57;102161.97;5075878;27;45504;-69
2023/04/04 10:44:39;;;;;;;;;8.25;8.25;;;;;12.28;31.76;102168.28;5075726;27;45491;-69
2023/04/04 10:47:16;;;;;;;;;5.00;4.00;;;;;12.48;31.98;102164.25;5092712;27;45700;-68
2023/04/04 10:49:44;;;;;;;;;9.00;6.75;;;;;12.70;31.26;102157.59;5091346;27;45547;-67
2023/04/04 10:52:17;;;;;;;;;8.25;7.25;;;;;12.96;30.46;102162.38;5077500;27;45596;-68
2023/04/04 10:54:44;;;;;;;;;14.00;8.75;;;;;12.98;30.22;102150.16;5098535;27;45611;-67
2023/04/04 10:57:11;;;;;;;;;9.25;7.75;;;;;12.72;30.55;102145.38;5080510;27;45451;-68
2023/04/04 11:00:00;;;;;;;;;9.25;9.25;;;;;12.67;30.75;102151.41;5080138;27;45486;-68
2023/04/04 11:02:50;;;;;;;;;7.50;6.00;;;;;12.66;30.84;102141.75;5085423;27;45457;-67
2023/04/04 11:05:46;;;;;;;;;10.00;6.50;;;;;12.73;30.68;102138.38;5081020;27;45631;-67
2023/04/04 11:08:16;;;;;;;;;11.00;11.00;;;;;12.96;30.47;102137.84;5091320;27;45712;-67
2023/04/04 11:10:47;;;;;;;;;9.75;6.75;;;;;12.93;29.84;102138.66;5095765;27;45436;-68
2023/04/04 11:13:15;;;;;;;;;12.50;6.25;;;;;13.03;30.44;102130.06;5079772;27;47699;-67
2023/04/04 11:16:06;;;;;;;;;12.50;8.50;;;;;13.01;29.69;102123.88;5076601;27;45396;-67
2023/04/04 11:18:45;;;;;;;;;11.00;10.25;;;;;12.80;30.22;102106.03;5070754;27;45715;-69
2023/04/04 11:21:17;;;;;;;;;10.25;7.00;;;;;12.86;30.00;102107.88;5094303;27;45631;-68
2023/04/04 11:23:48;;;;;;;;;10.50;8.25;;;;;12.98;30.13;102118.59;5093708;27;46548;-67
2023/04/04 11:26:29;;;;;;;;;8.25;7.75;;;;;12.91;29.62;102119.38;5075326;27;45429;-68